メインページ
METAR-TAF:

METAR-TAF

空港 :

ポートオブスペイン, トリニダード島, トリニダード・トバゴ

緯度: 10-37N, 経度: 061-21W, 海抜: 12m

現時点の気象観測

当レポートは1時間11分前の01:00(UTC)に作成
無風
気温 24°C
湿度 89%
気圧 1017 hPa
視程10km以上
高度1600ftの雲はほとんどない

METAR: TTPP 150100Z 00000KT 9999 FEW016 24/22 Q1017 NOSIG

時間: 22:11 (02:11 UTC)

予報

当レポートは4時間11分前の22:00(UTC)に作成
予報は15日の 00時(UTC)から 15日の 24時(UTC)まで有効
の風 5kt
視程10km以上
高度1800ftの雲はほとんどない
15日の 12時(UTC)から 15日の 14時(UTC)まで徐々に
の風 15kt
高度2200ftの雲は散在している

TAF: TTPP 142200Z 1500/1524 09005KT 9999 FEW018 BECMG 1512/1514 09015KT SCT022

4,000以上の空港の気象観測と天気予報(METAR報とTAF報)

利用可能な観測所は地図上に黄色い丸と赤い丸で示す。

丸の上にカーソルを重ねると観測所名を参照できる。

次にクリックすると気象観測と天気予報を参照できる。

マップの切り替え:黒色「×」印の緑ボタンをクリックして拡大、「-」印の緑ボタンをクリックして縮小、緑色の三角印をクリックして隣りの地図に切り替え


METAR-TAF: